sensor_id;sensor_type;location;lat;lon;timestamp;pressure;altitude;pressure_sealevel;temperature;humidity
68634;BME280;55625;47.072;22.192;2023-01-25T00:02:25;101304.81;;;4.03;99.50
68634;BME280;55625;47.072;22.192;2023-01-25T00:04:51;101295.03;;;3.97;100.00
68634;BME280;55625;47.072;22.192;2023-01-25T00:07:17;101303.44;;;3.97;100.00
68634;BME280;55625;47.072;22.192;2023-01-25T00:09:43;101300.19;;;3.95;99.95
68634;BME280;55625;47.072;22.192;2023-01-25T00:12:09;101305.75;;;3.92;100.00
68634;BME280;55625;47.072;22.192;2023-01-25T00:14:35;101302.88;;;3.88;100.00
68634;BME280;55625;47.072;22.192;2023-01-25T00:17:00;101296.44;;;3.88;99.89
68634;BME280;55625;47.072;22.192;2023-01-25T00:19:26;101296.81;;;3.86;99.67
68634;BME280;55625;47.072;22.192;2023-01-25T00:21:52;101298.28;;;3.80;100.00
68634;BME280;55625;47.072;22.192;2023-01-25T00:24:18;101298.28;;;3.80;100.00
68634;BME280;55625;47.072;22.192;2023-01-25T00:26:47;101293.88;;;3.79;100.00
68634;BME280;55625;47.072;22.192;2023-01-25T00:29:13;101301.84;;;3.77;100.00
68634;BME280;55625;47.072;22.192;2023-01-25T00:37:10;101298.59;;;3.75;99.46
68634;BME280;55625;47.072;22.192;2023-01-25T00:39:37;101300.59;;;3.74;100.00
68634;BME280;55625;47.072;22.192;2023-01-25T00:42:09;101301.41;;;3.75;99.69
68634;BME280;55625;47.072;22.192;2023-01-25T00:44:36;101306.19;;;3.74;100.00
68634;BME280;55625;47.072;22.192;2023-01-25T00:47:02;101307.75;;;3.72;99.70
68634;BME280;55625;47.072;22.192;2023-01-25T00:49:29;101308.56;;;3.72;99.31
68634;BME280;55625;47.072;22.192;2023-01-25T00:51:57;101305.69;;;3.69;98.93
68634;BME280;55625;47.072;22.192;2023-01-25T00:54:23;101304.31;;;3.63;98.82
68634;BME280;55625;47.072;22.192;2023-01-25T00:56:49;101305.88;;;3.60;99.19
68634;BME280;55625;47.072;22.192;2023-01-25T00:59:22;101298.28;;;3.61;99.40
68634;BME280;55625;47.072;22.192;2023-01-25T01:01:48;101302.78;;;3.65;99.64
68634;BME280;55625;47.072;22.192;2023-01-25T01:04:15;101294.81;;;3.67;99.08
68634;BME280;55625;47.072;22.192;2023-01-25T01:06:41;101299.97;;;3.65;98.69
68634;BME280;55625;47.072;22.192;2023-01-25T01:09:12;101300.34;;;3.64;99.26
68634;BME280;55625;47.072;22.192;2023-01-25T01:11:38;101301.97;;;3.65;99.06
68634;BME280;55625;47.072;22.192;2023-01-25T01:14:04;101301.44;;;3.59;99.20
68634;BME280;55625;47.072;22.192;2023-01-25T01:16:30;101306.25;;;3.59;100.00
68634;BME280;55625;47.072;22.192;2023-01-25T01:18:56;101297.81;;;3.59;99.21
68634;BME280;55625;47.072;22.192;2023-01-25T01:21:23;101307.44;;;3.58;99.43
68634;BME280;55625;47.072;22.192;2023-01-25T01:23:49;101303.44;;;3.59;99.24
68634;BME280;55625;47.072;22.192;2023-01-25T01:26:17;101301.44;;;3.59;99.56
68634;BME280;55625;47.072;22.192;2023-01-25T01:28:45;101295.84;;;3.59;99.65
68634;BME280;55625;47.072;22.192;2023-01-25T01:31:21;101290.22;;;3.59;99.25
68634;BME280;55625;47.072;22.192;2023-01-25T01:33:53;101298.13;;;3.54;98.61
68634;BME280;55625;47.072;22.192;2023-01-25T01:36:21;101295.31;;;3.54;99.38
68634;BME280;55625;47.072;22.192;2023-01-25T01:38:48;101293.69;;;3.53;98.97
68634;BME280;55625;47.072;22.192;2023-01-25T01:41:14;101287.19;;;3.49;98.43
68634;BME280;55625;47.072;22.192;2023-01-25T01:43:41;101282.03;;;3.51;98.80
68634;BME280;55625;47.072;22.192;2023-01-25T01:49:34;101285.19;;;3.49;99.12
68634;BME280;55625;47.072;22.192;2023-01-25T01:52:06;101281.56;;;3.49;98.82
68634;BME280;55625;47.072;22.192;2023-01-25T01:54:44;101284.38;;;3.49;98.96
68634;BME280;55625;47.072;22.192;2023-01-25T01:57:23;101282.31;;;3.46;99.15
68634;BME280;55625;47.072;22.192;2023-01-25T01:59:56;101283.13;;;3.46;99.22
68634;BME280;55625;47.072;22.192;2023-01-25T02:02:24;101283.13;;;3.46;99.77
68634;BME280;55625;47.072;22.192;2023-01-25T02:04:54;101278.31;;;3.47;100.00
68634;BME280;55625;47.072;22.192;2023-01-25T02:07:37;101275.16;;;3.48;99.47
68634;BME280;55625;47.072;22.192;2023-01-25T02:10:08;101280.31;;;3.46;99.38
68634;BME280;55625;47.072;22.192;2023-01-25T02:12:36;101275.06;;;3.45;99.47
68634;BME280;55625;47.072;22.192;2023-01-25T02:15:03;101270.63;;;3.43;99.25
68634;BME280;55625;47.072;22.192;2023-01-25T02:17:33;101266.22;;;3.42;99.86
68634;BME280;55625;47.072;22.192;2023-01-25T02:20:15;101265.03;;;3.43;100.00
68634;BME280;55625;47.072;22.192;2023-01-25T02:22:59;101252.63;;;3.45;99.69
68634;BME280;55625;47.072;22.192;2023-01-25T02:25:28;101257.34;;;3.40;99.82
68634;BME280;55625;47.072;22.192;2023-01-25T02:28:01;101257.16;;;3.33;99.64
68634;BME280;55625;47.072;22.192;2023-01-25T02:30:29;101254.72;;;3.32;100.00
68634;BME280;55625;47.072;22.192;2023-01-25T02:32:55;101257.09;;;3.30;100.00
68634;BME280;55625;47.072;22.192;2023-01-25T02:35:35;101263.00;;;3.25;100.00
68634;BME280;55625;47.072;22.192;2023-01-25T02:38:01;101259.38;;;3.24;100.00
68634;BME280;55625;47.072;22.192;2023-01-25T02:40:28;101250.97;;;3.24;100.00
68634;BME280;55625;47.072;22.192;2023-01-25T02:42:56;101245.78;;;3.26;100.00
68634;BME280;55625;47.072;22.192;2023-01-25T02:45:26;101253.47;;;3.29;100.00
68634;BME280;55625;47.072;22.192;2023-01-25T02:47:53;101247.88;;;3.29;100.00
68634;BME280;55625;47.072;22.192;2023-01-25T02:50:19;101251.56;;;3.33;100.00
68634;BME280;55625;47.072;22.192;2023-01-25T02:52:44;101246.38;;;3.35;100.00
68634;BME280;55625;47.072;22.192;2023-01-25T02:55:10;101243.94;;;3.34;100.00
68634;BME280;55625;47.072;22.192;2023-01-25T02:57:36;101233.16;;;3.36;100.00
68634;BME280;55625;47.072;22.192;2023-01-25T03:00:03;101245.22;;;3.36;100.00
68634;BME280;55625;47.072;22.192;2023-01-25T03:02:30;101233.97;;;3.36;100.00
68634;BME280;55625;47.072;22.192;2023-01-25T03:04:56;101244.41;;;3.36;100.00
68634;BME280;55625;47.072;22.192;2023-01-25T03:07:22;101238.56;;;3.25;100.00
68634;BME280;55625;47.072;22.192;2023-01-25T03:09:48;101231.75;;;3.26;100.00
68634;BME280;55625;47.072;22.192;2023-01-25T03:12:14;101228.16;;;3.26;100.00
68634;BME280;55625;47.072;22.192;2023-01-25T03:14:39;101228.97;;;3.26;100.00
68634;BME280;55625;47.072;22.192;2023-01-25T03:17:05;101235.38;;;3.27;100.00
68634;BME280;55625;47.072;22.192;2023-01-25T03:19:31;101237.09;;;3.31;99.91
68634;BME280;55625;47.072;22.192;2023-01-25T03:21:57;101242.63;;;3.28;99.96
68634;BME280;55625;47.072;22.192;2023-01-25T03:24:23;101246.53;;;3.23;99.35
68634;BME280;55625;47.072;22.192;2023-01-25T03:26:49;101241.66;;;3.20;98.89
68634;BME280;55625;47.072;22.192;2023-01-25T03:29:33;101238.31;;;3.15;100.00
68634;BME280;55625;47.072;22.192;2023-01-25T03:31:59;101240.75;;;3.16;100.00
68634;BME280;55625;47.072;22.192;2023-01-25T03:34:25;101243.13;;;3.14;100.00
68634;BME280;55625;47.072;22.192;2023-01-25T03:36:51;101240.75;;;3.16;100.00
68634;BME280;55625;47.072;22.192;2023-01-25T03:39:17;101242.38;;;3.17;99.78
68634;BME280;55625;47.072;22.192;2023-01-25T03:41:43;101240.41;;;3.18;100.00
68634;BME280;55625;47.072;22.192;2023-01-25T03:44:09;101232.34;;;3.16;99.42
68634;BME280;55625;47.072;22.192;2023-01-25T03:46:39;101233.53;;;3.15;98.54
68634;BME280;55625;47.072;22.192;2023-01-25T03:49:05;101231.91;;;3.14;99.47
68634;BME280;55625;47.072;22.192;2023-01-25T03:51:31;101230.72;;;3.15;99.38
68634;BME280;55625;47.072;22.192;2023-01-25T03:53:57;101233.16;;;3.17;99.43
68634;BME280;55625;47.072;22.192;2023-01-25T03:56:23;101233.59;;;3.19;100.00
68634;BME280;55625;47.072;22.192;2023-01-25T03:58:49;101235.69;;;3.22;100.00
68634;BME280;55625;47.072;22.192;2023-01-25T04:01:14;101232.50;;;3.23;99.76
68634;BME280;55625;47.072;22.192;2023-01-25T04:03:40;101231.63;;;3.19;99.27
68634;BME280;55625;47.072;22.192;2023-01-25T04:06:06;101235.53;;;3.15;99.15
68634;BME280;55625;47.072;22.192;2023-01-25T04:08:33;101225.41;;;3.10;99.18
68634;BME280;55625;47.072;22.192;2023-01-25T04:11:08;101228.13;;;3.06;99.01
68634;BME280;55625;47.072;22.192;2023-01-25T04:13:35;101231.28;;;3.05;98.89
68634;BME280;55625;47.072;22.192;2023-01-25T04:16:06;101234.44;;;3.03;98.55
68634;BME280;55625;47.072;22.192;2023-01-25T04:18:33;101229.22;;;3.02;98.08
68634;BME280;55625;47.072;22.192;2023-01-25T04:20:59;101230.84;;;3.03;99.22
68634;BME280;55625;47.072;22.192;2023-01-25T04:23:25;101230.38;;;3.01;98.79
68634;BME280;55625;47.072;22.192;2023-01-25T04:26:03;101229.56;;;3.00;98.03
68634;BME280;55625;47.072;22.192;2023-01-25T04:28:32;101228.47;;;3.05;97.28
68634;BME280;55625;47.072;22.192;2023-01-25T04:30:58;101234.28;;;2.96;98.45
68634;BME280;55625;47.072;22.192;2023-01-25T04:33:25;101233.41;;;2.92;97.91
68634;BME280;55625;47.072;22.192;2023-01-25T04:35:51;101228.59;;;2.93;97.70
68634;BME280;55625;47.072;22.192;2023-01-25T04:38:17;101227.88;;;2.96;98.01
68634;BME280;55625;47.072;22.192;2023-01-25T04:40:43;101226.69;;;2.97;97.55
68634;BME280;55625;47.072;22.192;2023-01-25T04:43:13;101230.31;;;2.97;97.46
68634;BME280;55625;47.072;22.192;2023-01-25T04:45:39;101228.31;;;2.98;97.70
68634;BME280;55625;47.072;22.192;2023-01-25T04:48:08;101226.75;;;3.00;98.20
68634;BME280;55625;47.072;22.192;2023-01-25T04:50:41;101228.03;;;3.03;98.39
68634;BME280;55625;47.072;22.192;2023-01-25T04:53:08;101227.56;;;3.01;98.28
68634;BME280;55625;47.072;22.192;2023-01-25T04:55:34;101221.22;;;3.04;98.48
68634;BME280;55625;47.072;22.192;2023-01-25T04:58:01;101220.44;;;3.03;98.07
68634;BME280;55625;47.072;22.192;2023-01-25T05:00:28;101223.16;;;3.00;98.37
68634;BME280;55625;47.072;22.192;2023-01-25T05:02:54;101223.59;;;3.02;98.40
68634;BME280;55625;47.072;22.192;2023-01-25T05:05:20;101229.22;;;3.02;98.60
68634;BME280;55625;47.072;22.192;2023-01-25T05:07:46;101224.31;;;2.99;97.58
68634;BME280;55625;47.072;22.192;2023-01-25T05:10:12;101228.75;;;3.00;98.17
68634;BME280;55625;47.072;22.192;2023-01-25T05:12:38;101230.00;;;3.02;98.62
68634;BME280;55625;47.072;22.192;2023-01-25T05:15:05;101235.25;;;3.04;98.50
68634;BME280;55625;47.072;22.192;2023-01-25T05:17:31;101245.78;;;3.07;99.04
68634;BME280;55625;47.072;22.192;2023-01-25T05:19:57;101233.81;;;3.10;98.99
68634;BME280;55625;47.072;22.192;2023-01-25T05:22:23;101240.69;;;3.13;98.76
68634;BME280;55625;47.072;22.192;2023-01-25T05:24:49;101246.28;;;3.13;98.87
68634;BME280;55625;47.072;22.192;2023-01-25T05:27:19;101237.50;;;3.14;98.02
68634;BME280;55625;47.072;22.192;2023-01-25T05:29:45;101235.88;;;3.13;98.33
68634;BME280;55625;47.072;22.192;2023-01-25T05:32:18;101225.47;;;3.14;97.80
68634;BME280;55625;47.072;22.192;2023-01-25T05:34:45;101229.19;;;3.18;98.05
68634;BME280;55625;47.072;22.192;2023-01-25T05:37:17;101226.38;;;3.18;98.22
68634;BME280;55625;47.072;22.192;2023-01-25T05:39:43;101220.41;;;3.19;98.88
68634;BME280;55625;47.072;22.192;2023-01-25T05:42:17;101217.59;;;3.19;98.07
68634;BME280;55625;47.072;22.192;2023-01-25T05:44:43;101220.75;;;3.18;97.03
68634;BME280;55625;47.072;22.192;2023-01-25T05:47:15;101225.56;;;3.17;97.32
68634;BME280;55625;47.072;22.192;2023-01-25T05:49:41;101223.19;;;3.19;96.93
68634;BME280;55625;47.072;22.192;2023-01-25T05:52:15;101237.66;;;3.21;96.71
68634;BME280;55625;47.072;22.192;2023-01-25T05:54:41;101235.69;;;3.22;96.39
68634;BME280;55625;47.072;22.192;2023-01-25T05:57:07;101232.88;;;3.22;96.54
68634;BME280;55625;47.072;22.192;2023-01-25T05:59:33;101236.50;;;3.22;96.57
68634;BME280;55625;47.072;22.192;2023-01-25T06:01:59;101232.13;;;3.25;97.63
68634;BME280;55625;47.072;22.192;2023-01-25T06:04:25;101235.75;;;3.25;97.89
68634;BME280;55625;47.072;22.192;2023-01-25T06:06:51;101237.81;;;3.28;97.95
68634;BME280;55625;47.072;22.192;2023-01-25T06:09:16;101239.44;;;3.29;98.18
68634;BME280;55625;47.072;22.192;2023-01-25T06:11:43;101244.25;;;3.29;98.61
68634;BME280;55625;47.072;22.192;2023-01-25T06:14:09;101241.00;;;3.27;98.30
68634;BME280;55625;47.072;22.192;2023-01-25T06:16:36;101243.28;;;3.21;98.30
68634;BME280;55625;47.072;22.192;2023-01-25T06:19:05;101246.91;;;3.22;97.91
68634;BME280;55625;47.072;22.192;2023-01-25T06:21:31;101245.19;;;3.17;96.17
68634;BME280;55625;47.072;22.192;2023-01-25T06:23:57;101253.97;;;3.16;96.02
68634;BME280;55625;47.072;22.192;2023-01-25T06:26:23;101248.72;;;3.14;96.07
68634;BME280;55625;47.072;22.192;2023-01-25T06:28:49;101255.09;;;3.11;95.58
68634;BME280;55625;47.072;22.192;2023-01-25T06:31:17;101251.09;;;3.12;96.10
68634;BME280;55625;47.072;22.192;2023-01-25T06:33:47;101253.09;;;3.11;95.43
68634;BME280;55625;47.072;22.192;2023-01-25T06:36:16;101254.63;;;3.09;95.03
68634;BME280;55625;47.072;22.192;2023-01-25T06:38:46;101253.09;;;3.11;95.66
68634;BME280;55625;47.072;22.192;2023-01-25T06:41:12;101251.91;;;3.13;95.51
68634;BME280;55625;47.072;22.192;2023-01-25T06:43:38;101257.16;;;3.14;96.17
68634;BME280;55625;47.072;22.192;2023-01-25T06:46:07;101248.72;;;3.14;96.15
68634;BME280;55625;47.072;22.192;2023-01-25T06:48:34;101255.97;;;3.15;96.03
68634;BME280;55625;47.072;22.192;2023-01-25T06:51:03;101261.22;;;3.17;95.85
68634;BME280;55625;47.072;22.192;2023-01-25T06:53:32;101257.66;;;3.20;96.20
68634;BME280;55625;47.072;22.192;2023-01-25T06:56:08;101253.75;;;3.24;96.99
68634;BME280;55625;47.072;22.192;2023-01-25T06:58:35;101252.22;;;3.27;97.36
68634;BME280;55625;47.072;22.192;2023-01-25T07:01:14;101249.84;;;3.29;97.68
68634;BME280;55625;47.072;22.192;2023-01-25T07:03:41;101253.91;;;3.31;97.35
68634;BME280;55625;47.072;22.192;2023-01-25T07:06:09;101250.66;;;3.29;96.13
68634;BME280;55625;47.072;22.192;2023-01-25T07:08:36;101255.09;;;3.30;96.26
68634;BME280;55625;47.072;22.192;2023-01-25T07:11:06;101241.06;;;3.30;95.49
68634;BME280;55625;47.072;22.192;2023-01-25T07:13:34;101243.50;;;3.32;95.13
68634;BME280;55625;47.072;22.192;2023-01-25T07:16:04;101247.13;;;3.32;96.51
68634;BME280;55625;47.072;22.192;2023-01-25T07:18:31;101243.44;;;3.28;96.48
68634;BME280;55625;47.072;22.192;2023-01-25T07:21:19;101249.84;;;3.29;96.06
68634;BME280;55625;47.072;22.192;2023-01-25T07:23:46;101246.69;;;3.30;95.46
68634;BME280;55625;47.072;22.192;2023-01-25T07:26:18;101253.53;;;3.33;94.93
68634;BME280;55625;47.072;22.192;2023-01-25T07:28:46;101255.53;;;3.32;95.15
68634;BME280;55625;47.072;22.192;2023-01-25T07:31:13;101248.31;;;3.31;95.73
68634;BME280;55625;47.072;22.192;2023-01-25T07:33:40;101244.31;;;3.32;94.52
68634;BME280;55625;47.072;22.192;2023-01-25T07:36:08;101245.50;;;3.31;94.77
68634;BME280;55625;47.072;22.192;2023-01-25T07:38:35;101241.88;;;3.31;95.11
68634;BME280;55625;47.072;22.192;2023-01-25T07:41:02;101243.13;;;3.33;95.02
68634;BME280;55625;47.072;22.192;2023-01-25T07:43:28;101249.50;;;3.30;94.94
68634;BME280;55625;47.072;22.192;2023-01-25T07:46:00;101247.13;;;3.32;95.21
68634;BME280;55625;47.072;22.192;2023-01-25T07:48:27;101246.69;;;3.30;94.72
68634;BME280;55625;47.072;22.192;2023-01-25T07:51:01;101246.69;;;3.30;94.66
68634;BME280;55625;47.072;22.192;2023-01-25T07:53:40;101245.50;;;3.31;94.74
68634;BME280;55625;47.072;22.192;2023-01-25T07:56:08;101249.94;;;3.32;94.39
68634;BME280;55625;47.072;22.192;2023-01-25T07:58:34;101252.38;;;3.34;94.57
68634;BME280;55625;47.072;22.192;2023-01-25T08:01:08;101241.97;;;3.34;94.20
68634;BME280;55625;47.072;22.192;2023-01-25T08:03:34;101237.63;;;3.37;94.36
68634;BME280;55625;47.072;22.192;2023-01-25T08:06:00;101235.16;;;3.35;94.33
68634;BME280;55625;47.072;22.192;2023-01-25T08:08:27;101245.22;;;3.36;95.61
68634;BME280;55625;47.072;22.192;2023-01-25T08:10:53;101238.06;;;3.39;98.22
68634;BME280;55625;47.072;22.192;2023-01-25T08:13:19;101237.72;;;3.40;96.68
68634;BME280;55625;47.072;22.192;2023-01-25T08:15:53;101233.72;;;3.41;96.04
68634;BME280;55625;47.072;22.192;2023-01-25T08:18:19;101230.91;;;3.41;96.65
68634;BME280;55625;47.072;22.192;2023-01-25T08:20:46;101240.97;;;3.42;97.44
68634;BME280;55625;47.072;22.192;2023-01-25T08:23:12;101237.78;;;3.44;97.09
68634;BME280;55625;47.072;22.192;2023-01-25T08:25:37;101230.63;;;3.47;97.07
68634;BME280;55625;47.072;22.192;2023-01-25T08:28:04;101239.03;;;3.47;95.10
68634;BME280;55625;47.072;22.192;2023-01-25T08:30:30;101234.97;;;3.44;94.82
68634;BME280;55625;47.072;22.192;2023-01-25T08:32:56;101235.72;;;3.41;95.14
68634;BME280;55625;47.072;22.192;2023-01-25T08:35:21;101235.72;;;3.41;95.12
68634;BME280;55625;47.072;22.192;2023-01-25T08:37:47;101237.34;;;3.42;96.05
68634;BME280;55625;47.072;22.192;2023-01-25T08:40:13;101235.03;;;3.48;96.65
68634;BME280;55625;47.072;22.192;2023-01-25T08:42:39;101243.53;;;3.51;97.04
68634;BME280;55625;47.072;22.192;2023-01-25T08:45:08;101242.06;;;3.38;97.83
68634;BME280;55625;47.072;22.192;2023-01-25T08:47:34;101237.91;;;3.32;99.64
68634;BME280;55625;47.072;22.192;2023-01-25T08:50:01;101241.06;;;3.30;99.14
68634;BME280;55625;47.072;22.192;2023-01-25T08:52:27;101236.13;;;3.24;99.12
68634;BME280;55625;47.072;22.192;2023-01-25T08:54:53;101233.97;;;3.17;100.00
68634;BME280;55625;47.072;22.192;2023-01-25T08:57:18;101233.53;;;3.15;100.00
68634;BME280;55625;47.072;22.192;2023-01-25T08:59:44;101232.78;;;3.18;100.00
68634;BME280;55625;47.072;22.192;2023-01-25T09:02:11;101232.63;;;3.11;100.00
68634;BME280;55625;47.072;22.192;2023-01-25T09:04:37;101240.50;;;3.05;100.00
68634;BME280;55625;47.072;22.192;2023-01-25T09:07:03;101236.53;;;3.06;100.00
68634;BME280;55625;47.072;22.192;2023-01-25T09:09:30;101241.78;;;3.08;100.00
68634;BME280;55625;47.072;22.192;2023-01-25T09:11:56;101227.91;;;3.15;100.00
68634;BME280;55625;47.072;22.192;2023-01-25T09:14:22;101223.28;;;3.23;100.00
68634;BME280;55625;47.072;22.192;2023-01-25T09:16:48;101228.44;;;3.21;100.00
68634;BME280;55625;47.072;22.192;2023-01-25T09:19:14;101230.06;;;3.22;100.00
68634;BME280;55625;47.072;22.192;2023-01-25T09:21:40;101228.06;;;3.22;100.00
68634;BME280;55625;47.072;22.192;2023-01-25T09:24:06;101217.66;;;3.23;100.00
68634;BME280;55625;47.072;22.192;2023-01-25T09:26:36;101214.94;;;3.26;100.00
68634;BME280;55625;47.072;22.192;2023-01-25T09:29:03;101208.72;;;3.36;100.00
68634;BME280;55625;47.072;22.192;2023-01-25T09:31:29;101213.78;;;3.47;100.00
68634;BME280;55625;47.072;22.192;2023-01-25T09:33:56;101204.69;;;3.53;99.81
68634;BME280;55625;47.072;22.192;2023-01-25T09:36:22;101203.94;;;3.56;99.08
68634;BME280;55625;47.072;22.192;2023-01-25T09:38:48;101198.34;;;3.56;98.88
68634;BME280;55625;47.072;22.192;2023-01-25T09:46:43;101202.63;;;3.69;99.34
68634;BME280;55625;47.072;22.192;2023-01-25T09:55:23;101186.28;;;3.75;98.52
68634;BME280;55625;47.072;22.192;2023-01-25T09:57:51;101174.75;;;3.80;98.41
68634;BME280;55625;47.072;22.192;2023-01-25T10:00:22;101174.00;;;3.83;97.73
68634;BME280;55625;47.072;22.192;2023-01-25T10:03:29;101176.44;;;3.85;97.48
68634;BME280;55625;47.072;22.192;2023-01-25T10:06:00;101169.25;;;3.87;97.63
68634;BME280;55625;47.072;22.192;2023-01-25T10:08:59;101160.84;;;3.87;97.72
68634;BME280;55625;47.072;22.192;2023-01-25T10:11:31;101172.50;;;3.89;97.16
68634;BME280;55625;47.072;22.192;2023-01-25T10:13:58;101166.09;;;3.89;97.72
68634;BME280;55625;47.072;22.192;2023-01-25T10:30:18;101153.84;;;3.78;95.18
68634;BME280;55625;47.072;22.192;2023-01-25T10:32:45;101142.94;;;3.72;94.28
68634;BME280;55625;47.072;22.192;2023-01-25T10:35:16;101140.50;;;3.71;94.09
68634;BME280;55625;47.072;22.192;2023-01-25T10:37:43;101137.69;;;3.71;94.34
68634;BME280;55625;47.072;22.192;2023-01-25T10:40:23;101131.25;;;3.70;95.05
68634;BME280;55625;47.072;22.192;2023-01-25T10:42:55;101121.50;;;3.64;95.30
68634;BME280;55625;47.072;22.192;2023-01-25T10:45:25;101123.88;;;3.62;95.83
68634;BME280;55625;47.072;22.192;2023-01-25T10:48:05;101117.31;;;3.55;95.27
68634;BME280;55625;47.072;22.192;2023-01-25T10:58:34;101098.09;;;3.57;97.99
68634;BME280;55625;47.072;22.192;2023-01-25T11:01:03;101096.28;;;3.45;98.88
68634;BME280;55625;47.072;22.192;2023-01-25T11:03:42;101093.78;;;3.40;100.00
68634;BME280;55625;47.072;22.192;2023-01-25T11:06:11;101090.00;;;3.32;99.96
68634;BME280;55625;47.072;22.192;2023-01-25T11:08:39;101081.59;;;3.32;100.00
68634;BME280;55625;47.072;22.192;2023-01-25T11:13:56;101078.84;;;3.36;100.00
68634;BME280;55625;47.072;22.192;2023-01-25T11:16:36;101074.38;;;3.31;100.00
68634;BME280;55625;47.072;22.192;2023-01-25T11:19:37;101071.50;;;3.28;100.00
68634;BME280;55625;47.072;22.192;2023-01-25T11:22:26;101075.91;;;3.29;100.00
68634;BME280;55625;47.072;22.192;2023-01-25T11:24:53;101068.31;;;3.29;100.00
68634;BME280;55625;47.072;22.192;2023-01-25T11:27:25;101057.97;;;3.33;100.00
68634;BME280;55625;47.072;22.192;2023-01-25T11:30:15;101060.50;;;3.19;100.00
68634;BME280;55625;47.072;22.192;2023-01-25T11:32:43;101059.03;;;3.25;100.00
68634;BME280;55625;47.072;22.192;2023-01-25T11:35:16;101059.47;;;3.27;100.00
68634;BME280;55625;47.072;22.192;2023-01-25T11:38:22;101056.66;;;3.27;100.00
68634;BME280;55625;47.072;22.192;2023-01-25T11:59:08;101024.91;;;3.42;100.00
68634;BME280;55625;47.072;22.192;2023-01-25T12:02:14;101024.94;;;3.46;100.00
68634;BME280;55625;47.072;22.192;2023-01-25T12:11:26;101006.44;;;3.41;100.00
68634;BME280;55625;47.072;22.192;2023-01-25T12:32:00;100996.19;;;3.30;100.00
68634;BME280;55625;47.072;22.192;2023-01-25T12:34:43;100988.47;;;3.23;100.00
68634;BME280;55625;47.072;22.192;2023-01-25T12:37:13;100984.91;;;3.26;100.00
68634;BME280;55625;47.072;22.192;2023-01-25T12:39:56;100986.03;;;3.22;100.00
68634;BME280;55625;47.072;22.192;2023-01-25T12:42:57;100976.44;;;3.23;100.00
68634;BME280;55625;47.072;22.192;2023-01-25T12:45:30;100978.09;;;3.27;100.00
68634;BME280;55625;47.072;22.192;2023-01-25T12:48:04;100973.25;;;3.24;100.00
68634;BME280;55625;47.072;22.192;2023-01-25T12:50:58;100965.25;;;3.26;100.00
68634;BME280;55625;47.072;22.192;2023-01-25T12:53:32;100965.59;;;3.21;100.00
68634;BME280;55625;47.072;22.192;2023-01-25T12:56:01;100962.66;;;3.14;100.00
68634;BME280;55625;47.072;22.192;2023-01-25T12:58:53;100962.44;;;3.03;100.00
68634;BME280;55625;47.072;22.192;2023-01-25T13:01:34;100956.91;;;3.07;100.00
68634;BME280;55625;47.072;22.192;2023-01-25T13:07:27;100956.59;;;3.12;100.00
68634;BME280;55625;47.072;22.192;2023-01-25T13:13:01;100952.34;;;2.99;100.00
68634;BME280;55625;47.072;22.192;2023-01-25T13:15:42;100948.03;;;3.05;100.00
68634;BME280;55625;47.072;22.192;2023-01-25T13:20:54;100938.53;;;3.09;100.00
68634;BME280;55625;47.072;22.192;2023-01-25T13:28:47;100945.91;;;2.98;100.00
68634;BME280;55625;47.072;22.192;2023-01-25T13:37:23;100942.50;;;2.86;100.00
68634;BME280;55625;47.072;22.192;2023-01-25T13:40:03;100938.44;;;2.83;100.00
68634;BME280;55625;47.072;22.192;2023-01-25T13:42:35;100936.31;;;2.76;100.00
68634;BME280;55625;47.072;22.192;2023-01-25T13:45:16;100932.41;;;2.81;100.00
68634;BME280;55625;47.072;22.192;2023-01-25T13:48:02;100931.59;;;2.80;100.00
68634;BME280;55625;47.072;22.192;2023-01-25T13:50:33;100924.78;;;2.82;100.00
68634;BME280;55625;47.072;22.192;2023-01-25T13:55:45;100930.09;;;2.87;100.00
68634;BME280;55625;47.072;22.192;2023-01-25T14:04:02;100921.13;;;2.77;100.00
68634;BME280;55625;47.072;22.192;2023-01-25T14:06:33;100915.88;;;2.76;100.00
68634;BME280;55625;47.072;22.192;2023-01-25T14:09:04;100910.63;;;2.74;100.00
68634;BME280;55625;47.072;22.192;2023-01-25T14:11:34;100907.09;;;2.77;100.00
68634;BME280;55625;47.072;22.192;2023-01-25T14:16:43;100905.25;;;2.85;100.00
68634;BME280;55625;47.072;22.192;2023-01-25T14:19:21;100905.13;;;2.78;100.00
68634;BME280;55625;47.072;22.192;2023-01-25T14:21:48;100902.97;;;2.71;100.00
68634;BME280;55625;47.072;22.192;2023-01-25T14:24:16;100905.75;;;2.71;100.00
68634;BME280;55625;47.072;22.192;2023-01-25T14:26:44;100901.34;;;2.70;100.00
68634;BME280;55625;47.072;22.192;2023-01-25T14:29:19;100896.97;;;2.73;100.00
68634;BME280;55625;47.072;22.192;2023-01-25T14:31:49;100895.31;;;2.68;100.00
68634;BME280;55625;47.072;22.192;2023-01-25T14:34:19;100893.91;;;2.78;100.00
68634;BME280;55625;47.072;22.192;2023-01-25T14:36:46;100904.53;;;2.69;100.00
68634;BME280;55625;47.072;22.192;2023-01-25T14:39:27;100900.59;;;2.73;100.00
68634;BME280;55625;47.072;22.192;2023-01-25T14:41:54;100900.69;;;2.77;100.00
68634;BME280;55625;47.072;22.192;2023-01-25T14:44:21;100893.81;;;2.74;100.00
68634;BME280;55625;47.072;22.192;2023-01-25T14:46:47;100895.59;;;2.63;100.00
68634;BME280;55625;47.072;22.192;2023-01-25T14:49:22;100887.28;;;2.67;100.00
68634;BME280;55625;47.072;22.192;2023-01-25T14:52:13;100889.94;;;2.60;100.00
68634;BME280;55625;47.072;22.192;2023-01-25T14:54:55;100887.81;;;2.53;100.00
68634;BME280;55625;47.072;22.192;2023-01-25T14:57:39;100885.44;;;2.55;100.00
68634;BME280;55625;47.072;22.192;2023-01-25T15:00:24;100883.84;;;2.54;100.00